Seabulk Challenge — KNJL — position and weather

sailwx.info

Track history (hours):
 
Tides and Currents Weather Stations Pressure Air Temp Water Temp Dewpoint Dewpoint Depression Visibility Wind Speed Wind Dir Waves Ship Positions

Seabulk Challenge

Owner: Seabulk Tankers, Inc., Fort Lauderdale, FL. More information available from US FCC via Universal Licensing System and Coast Guard Vessel Documentation Center.

Last reported at 2016-Sep-22 12:34 UTC. Time now 2016-Sep-27 17:14 UTC.
Position N 29°34' W 094°55'.

Length 192 m; draft 8 m.

Type: Tanker. MMSI: 303104000.

Date/timePositionNaut miles runAvg speedWind from/ knotsBaromVisibWave heightAir tempDewpointWater temp
2016-Sep-22 12:34N 29°34' W 094°55'  
2016-Sep-17 21:15N 25°17' W 080°04'913.3
2016-Sep-17 20:33N 25°26' W 080°01'1612.8
2016-Sep-17 19:16N 25°42' W 079°60'7012.3
2016-Sep-17 13:33N 26°52' W 079°52'1312.9
2016-Sep-17 12:33N 27°05' W 079°54'27114.6
2016-Sep-16 18:00N 31°36' W 079°36'712.5 030 / 221020.310.8 1.025.523.4
2016-Sep-16 17:28N 31°40' W 079°30'18716.3
2016-Sep-16 06:00N 33°48' W 076°48'34113.4 060 / 211020.310.8 1.024.523.1
2016-Sep-15 04:34N 39°23' W 075°29'1313.3
2016-Sep-15 03:33N 39°36' W 075°34'2010.1
2016-Sep-15 01:33N 39°51' W 075°16'11 3.7
2016-Sep-14 22:31N 39°59' W 075°06'0 0.0
2016-Sep-14 21:32N 39°59' W 075°06'0 0.0
2016-Sep-14 17:29N 39°59' W 075°06'0 0.0
2016-Sep-14 16:32N 39°59' W 075°06'0 0.0
2016-Sep-14 13:32N 39°59' W 075°06'0 0.0
2016-Sep-14 12:32N 39°59' W 075°06'0 0.0
2016-Sep-14 10:29N 39°59' W 075°06'0 0.0
2016-Sep-14 09:32N 39°59' W 075°06'0 0.0
2016-Sep-14 08:32N 39°59' W 075°06'0 0.0
2016-Sep-14 07:32N 39°59' W 075°06'0 0.0
2016-Sep-14 06:32N 39°59' W 075°06'0 0.0
2016-Sep-14 03:32N 39°59' W 075°06'0 0.0
2016-Sep-13 22:32N 39°59' W 075°06'0 0.0
2016-Sep-13 20:32N 39°59' W 075°06'0 0.0
2016-Sep-13 18:32N 39°59' W 075°06'0 0.0
2016-Sep-13 17:32N 39°59' W 075°06'0 0.0
2016-Sep-13 16:32N 39°59' W 075°06'0 0.0
2016-Sep-13 11:32N 39°59' W 075°06'0 0.0
2016-Sep-13 09:32N 39°59' W 075°06'0 0.0
2016-Sep-13 07:33N 39°59' W 075°06'0 0.0
2016-Sep-13 06:33N 39°59' W 075°06'0 0.0
2016-Sep-13 04:33N 39°59' W 075°06'4 1.8
2016-Sep-13 02:33N 39°56' W 075°08'21 6.8
2016-Sep-12 23:33N 39°44' W 075°30'20 9.8
2016-Sep-12 21:33N 39°24' W 075°30'2914.7
2016-Sep-12 19:33N 39°00' W 075°08'49 9.8
2016-Sep-12 14:31N 38°16' W 074°40'1212.0
2016-Sep-12 13:33N 38°05' W 074°40'  
Track history (hours):
 
Tides and Currents Weather Stations Pressure Air Temp Water Temp Dewpoint Dewpoint Depression Visibility Wind Speed Wind Dir Waves Ship Positions

Seabulk Challenge

Owner: Seabulk Tankers, Inc., Fort Lauderdale, FL. More information available from US FCC via Universal Licensing System and Coast Guard Vessel Documentation Center.

Last reported at 2016-Sep-22 12:34 UTC. Time now 2016-Sep-27 17:14 UTC.
Position N 29°34' W 094°55'.

Length 192 m; draft 8 m.

Type: Tanker. MMSI: 303104000.

Date/timePositionNaut miles runAvg speedWind from/ knotsBaromVisibWave heightAir tempDewpointWater temp
2016-Sep-22 12:34N 29°34' W 094°55'  
2016-Sep-17 21:15N 25°17' W 080°04'913.3
2016-Sep-17 20:33N 25°26' W 080°01'1612.8
2016-Sep-17 19:16N 25°42' W 079°60'7012.3
2016-Sep-17 13:33N 26°52' W 079°52'1312.9
2016-Sep-17 12:33N 27°05' W 079°54'27114.6
2016-Sep-16 18:00N 31°36' W 079°36'712.5 030 / 221020.310.8 1.025.523.4
2016-Sep-16 17:28N 31°40' W 079°30'18716.3
2016-Sep-16 06:00N 33°48' W 076°48'34113.4 060 / 211020.310.8 1.024.523.1
2016-Sep-15 04:34N 39°23' W 075°29'1313.3
2016-Sep-15 03:33N 39°36' W 075°34'2010.1
2016-Sep-15 01:33N 39°51' W 075°16'11 3.7
2016-Sep-14 22:31N 39°59' W 075°06'0 0.0
2016-Sep-14 21:32N 39°59' W 075°06'0 0.0
2016-Sep-14 17:29N 39°59' W 075°06'0 0.0
2016-Sep-14 16:32N 39°59' W 075°06'0 0.0
2016-Sep-14 13:32N 39°59' W 075°06'0 0.0
2016-Sep-14 12:32N 39°59' W 075°06'0 0.0
2016-Sep-14 10:29N 39°59' W 075°06'0 0.0
2016-Sep-14 09:32N 39°59' W 075°06'0 0.0
2016-Sep-14 08:32N 39°59' W 075°06'0 0.0
2016-Sep-14 07:32N 39°59' W 075°06'0 0.0
2016-Sep-14 06:32N 39°59' W 075°06'0 0.0
2016-Sep-14 03:32N 39°59' W 075°06'0 0.0
2016-Sep-13 22:32N 39°59' W 075°06'0 0.0
2016-Sep-13 20:32N 39°59' W 075°06'0 0.0
2016-Sep-13 18:32N 39°59' W 075°06'0 0.0
2016-Sep-13 17:32N 39°59' W 075°06'0 0.0
2016-Sep-13 16:32N 39°59' W 075°06'0 0.0
2016-Sep-13 11:32N 39°59' W 075°06'0 0.0
2016-Sep-13 09:32N 39°59' W 075°06'0 0.0
2016-Sep-13 07:33N 39°59' W 075°06'0 0.0
2016-Sep-13 06:33N 39°59' W 075°06'0 0.0
2016-Sep-13 04:33N 39°59' W 075°06'4 1.8
2016-Sep-13 02:33N 39°56' W 075°08'21 6.8
2016-Sep-12 23:33N 39°44' W 075°30'20 9.8
2016-Sep-12 21:33N 39°24' W 075°30'2914.7
2016-Sep-12 19:33N 39°00' W 075°08'49 9.8
2016-Sep-12 14:31N 38°16' W 074°40'1212.0
2016-Sep-12 13:33N 38°05' W 074°40'  

Dump ship's entire track history